Time;durP1;ratioP1;P1;durP2;ratioP2;P2;SDS_P1;SDS_P2;PMS_P1;PMS_P2;Temp;Humidity;BMP_temperature;BMP_pressure;BME280_temperature;BME280_humidity;BME280_pressure;Samples;Min_cycle;Max_cycle;Signal;HPM_P1;HPM_P2
2024/01/09 00:00:44;;;;;;;5.07;2.70;;;-3274.80;87.20;;;;;;5098650;28;20040;-81
2024/01/09 00:03:09;;;;;;;5.80;3.00;;;-3274.80;87.00;;;;;;5098422;28;20039;-81
2024/01/09 00:05:35;;;;;;;6.78;3.00;;;-3274.70;87.00;;;;;;5064820;28;20047;-80
2024/01/09 00:08:01;;;;;;;5.38;2.92;;;-3274.70;87.20;;;;;;5088370;27;20035;-82
2024/01/09 00:10:26;;;;;;;6.28;2.95;;;-3274.70;87.00;;;;;;5101760;27;20043;-81
2024/01/09 00:12:52;;;;;;;6.22;3.10;;;-3274.60;86.90;;;;;;5101789;27;20130;-81
2024/01/09 00:15:18;;;;;;;8.35;3.78;;;-3274.60;87.00;;;;;;5101148;27;20096;-81
2024/01/09 00:17:44;;;;;;;5.85;3.22;;;-3274.60;87.00;;;;;;5101667;27;20039;-81
2024/01/09 00:20:10;;;;;;;6.07;3.58;;;-3274.60;87.00;;;;;;5101603;27;20115;-82
2024/01/09 00:22:36;;;;;;;6.88;3.30;;;-3274.60;87.20;;;;;;5118696;27;20130;-81
2024/01/09 00:25:02;;;;;;;5.93;3.00;;;-3274.70;87.40;;;;;;5101541;27;20078;-81
2024/01/09 00:27:27;;;;;;;6.10;2.83;;;-3274.60;87.20;;;;;;5099061;28;20066;-81
2024/01/09 00:29:53;;;;;;;9.85;3.03;;;-3274.60;87.20;;;;;;5081365;28;20082;-81
2024/01/09 00:32:19;;;;;;;7.55;3.00;;;-3274.60;87.30;;;;;;5081060;28;20035;-81
2024/01/09 00:34:44;;;;;;;7.22;3.22;;;-3274.60;87.20;;;;;;5114605;28;20112;-80
2024/01/09 00:37:11;;;;;;;7.30;3.17;;;-3274.60;87.00;;;;;;5097825;28;20047;-81
2024/01/09 00:39:37;;;;;;;5.45;2.63;;;-3274.50;87.10;;;;;;5097625;28;20066;-80
2024/01/09 00:42:03;;;;;;;7.70;3.47;;;-3274.50;87.00;;;;;;5080803;28;20488;-82
2024/01/09 00:44:29;;;;;;;5.07;2.95;;;-3274.50;87.10;;;;;;5097257;27;20036;-82
2024/01/09 00:46:54;;;;;;;7.82;2.78;;;-3274.50;87.00;;;;;;5084318;27;20035;-82
2024/01/09 00:49:20;;;;;;;5.72;3.03;;;-3274.50;87.00;;;;;;5101043;27;20039;-83
2024/01/09 00:51:46;;;;;;;5.82;2.90;;;-3274.40;87.00;;;;;;5093128;28;20051;-83
2024/01/09 00:54:12;;;;;;;5.72;2.50;;;-3274.40;86.90;;;;;;5081017;28;20039;-83
2024/01/09 00:56:37;;;;;;;4.40;2.75;;;-3274.40;87.10;;;;;;5080818;28;20496;-81
2024/01/09 00:59:03;;;;;;;6.68;2.85;;;-3274.40;87.20;;;;;;5080574;28;20069;-82
2024/01/09 01:01:28;;;;;;;5.90;2.92;;;-3274.40;87.20;;;;;;5096950;28;20483;-82
2024/01/09 01:03:54;;;;;;;5.53;3.17;;;-3274.40;87.10;;;;;;5097088;28;20038;-81
2024/01/09 01:06:20;;;;;;;5.32;3.17;;;-3274.40;87.20;;;;;;5096739;28;20507;-82
2024/01/09 01:08:45;;;;;;;6.07;3.08;;;-3274.30;87.10;;;;;;5108542;27;20095;-83
2024/01/09 01:11:11;;;;;;;4.55;3.10;;;-3274.30;87.10;;;;;;5117014;27;20130;-82
2024/01/09 01:13:37;;;;;;;5.03;2.70;;;-3274.30;87.00;;;;;;5100431;27;20035;-83
2024/01/09 01:16:02;;;;;;;6.75;2.88;;;-3274.30;87.10;;;;;;5100041;27;20487;-81
2024/01/09 01:18:28;;;;;;;5.88;3.10;;;-3274.30;87.00;;;;;;5099926;27;20051;-81
2024/01/09 01:20:54;;;;;;;6.60;3.20;;;-3274.20;87.10;;;;;;5117155;27;20043;-82
2024/01/09 01:23:19;;;;;;;8.82;3.20;;;-3274.30;87.20;;;;;;5098722;27;20034;-81
2024/01/09 01:25:45;;;;;;;7.45;3.45;;;-3274.30;87.20;;;;;;5133893;27;20046;-82
2024/01/09 01:28:11;;;;;;;7.35;3.00;;;-3274.20;86.90;;;;;;5100091;27;20042;-81
2024/01/09 01:30:36;;;;;;;7.25;4.30;;;-3274.20;87.10;;;;;;5099706;27;20077;-82
2024/01/09 01:33:03;;;;;;;6.68;2.85;;;-3274.20;87.00;;;;;;5082805;27;20062;-82
2024/01/09 01:35:29;;;;;;;4.72;2.55;;;-3274.20;87.10;;;;;;5116844;27;20038;-81
2024/01/09 01:37:54;;;;;;;6.43;3.33;;;-3274.10;87.20;;;;;;5099680;27;20616;-83
2024/01/09 01:40:20;;;;;;;4.93;3.20;;;-3274.20;87.30;;;;;;5081321;27;20055;-83
2024/01/09 01:42:46;;;;;;;7.13;3.80;;;-3274.20;87.30;;;;;;5116572;27;20045;-84
2024/01/09 01:45:16;;;;;;;4.85;3.03;;;-3274.20;87.30;;;;;;5099591;27;20054;-82
2024/01/09 01:47:46;;;;;;;6.20;3.38;;;-3274.20;87.20;;;;;;5116627;27;20101;-82
2024/01/09 01:50:13;;;;;;;8.70;3.40;;;-3274.10;87.10;;;;;;5116227;27;20050;-82
2024/01/09 01:52:41;;;;;;;6.60;3.38;;;-3274.20;87.40;;;;;;5126864;27;20080;-81
2024/01/09 01:55:12;;;;;;;6.90;3.40;;;-3274.10;87.20;;;;;;5116326;27;20046;-84
2024/01/09 01:57:40;;;;;;;6.10;3.20;;;-3274.00;87.30;;;;;;5116367;27;20394;-82
2024/01/09 02:00:07;;;;;;;3.97;2.67;;;-3274.10;87.30;;;;;;5116418;27;20368;-80
2024/01/09 02:02:35;;;;;;;5.75;3.25;;;-3274.10;87.50;;;;;;5099226;27;20122;-83
2024/01/09 02:05:02;;;;;;;6.50;3.15;;;-3274.00;87.40;;;;;;5116090;27;20046;-83
2024/01/09 02:07:31;;;;;;;5.10;2.97;;;-3274.00;87.40;;;;;;5133323;27;20055;-82
2024/01/09 02:09:58;;;;;;;4.70;2.60;;;-3274.00;87.40;;;;;;5131883;27;20070;-81
2024/01/09 02:12:24;;;;;;;7.72;3.10;;;-3274.00;87.50;;;;;;5116197;27;20074;-83
2024/01/09 02:14:49;;;;;;;5.25;2.88;;;-3274.00;87.60;;;;;;5099006;27;20554;-81
2024/01/09 02:17:15;;;;;;;4.50;2.70;;;-3274.00;87.60;;;;;;5082062;27;20039;-81
2024/01/09 02:19:41;;;;;;;9.25;3.45;;;-3274.00;87.60;;;;;;5099038;27;20107;-82
2024/01/09 02:22:06;;;;;;;5.63;3.60;;;-3274.00;87.50;;;;;;5132956;27;20038;-82
2024/01/09 02:24:32;;;;;;;9.70;3.58;;;-3274.10;87.60;;;;;;5097892;27;20038;-81
2024/01/09 02:27:04;;;;;;;7.38;3.28;;;-3274.10;87.50;;;;;;5132823;27;20042;-81
2024/01/09 02:29:33;;;;;;;4.45;2.83;;;-3274.10;87.60;;;;;;5116055;27;20039;-81
2024/01/09 02:32:00;;;;;;;6.18;3.20;;;-3274.00;87.80;;;;;;5098750;27;20034;-82
2024/01/09 02:34:27;;;;;;;5.55;2.83;;;-3274.00;87.60;;;;;;5115826;28;20043;-82
2024/01/09 02:36:55;;;;;;;6.35;3.30;;;-3274.00;87.70;;;;;;5115758;27;20157;-81
2024/01/09 02:39:21;;;;;;;5.85;3.28;;;-3274.00;87.90;;;;;;5081668;28;20134;-84
2024/01/09 02:41:47;;;;;;;5.85;3.28;;;-3274.10;88.10;;;;;;5080882;28;20043;-82
2024/01/09 02:44:14;;;;;;;6.32;3.30;;;-3274.00;88.10;;;;;;5098743;28;20071;-82
2024/01/09 02:46:40;;;;;;;5.78;3.22;;;-3274.00;87.80;;;;;;5098751;28;20043;-82
2024/01/09 02:49:05;;;;;;;5.43;2.53;;;-3274.00;88.00;;;;;;5115496;28;20119;-82
2024/01/09 02:51:31;;;;;;;4.88;3.10;;;-3274.00;87.90;;;;;;5081687;28;20039;-83
2024/01/09 02:53:57;;;;;;;5.28;2.95;;;-3274.00;87.90;;;;;;5096595;28;20066;-81
2024/01/09 02:56:23;;;;;;;6.18;3.13;;;-3274.00;87.90;;;;;;5115640;28;20491;-82
2024/01/09 02:58:48;;;;;;;6.15;3.30;;;-3274.00;88.00;;;;;;5081928;28;20043;-81
2024/01/09 03:01:14;;;;;;;6.90;3.22;;;-3274.00;88.00;;;;;;5098494;28;20387;-83
2024/01/09 03:03:40;;;;;;;5.82;3.55;;;-3274.00;88.00;;;;;;5115415;28;20086;-82
2024/01/09 03:06:06;;;;;;;4.70;2.90;;;-3274.00;87.90;;;;;;5115657;28;20077;-81
2024/01/09 03:08:31;;;;;;;5.70;3.60;;;-3274.00;87.90;;;;;;5098633;28;20041;-82
2024/01/09 03:10:57;;;;;;;6.60;3.67;;;-3274.10;87.90;;;;;;5103680;28;20127;-82
2024/01/09 03:13:23;;;;;;;5.20;2.85;;;-3274.00;87.80;;;;;;5061494;28;20399;-82
2024/01/09 03:15:48;;;;;;;5.55;2.85;;;-3274.00;87.80;;;;;;5078449;28;20078;-82
2024/01/09 03:18:14;;;;;;;5.40;3.05;;;-3274.00;88.00;;;;;;5061367;28;20075;-82
2024/01/09 03:20:40;;;;;;;5.43;3.08;;;-3274.00;87.70;;;;;;5078014;28;20077;-83
2024/01/09 03:23:06;;;;;;;5.07;2.63;;;-3274.10;88.00;;;;;;5078543;28;20042;-82
2024/01/09 03:25:31;;;;;;;5.60;3.08;;;-3274.00;88.00;;;;;;5095035;28;20399;-82
2024/01/09 03:27:57;;;;;;;6.10;2.83;;;-3274.00;87.80;;;;;;5065316;28;20047;-82
2024/01/09 03:30:23;;;;;;;4.80;2.75;;;-3274.00;88.10;;;;;;5098438;28;20047;-81
2024/01/09 03:32:49;;;;;;;5.20;2.90;;;-3274.00;88.00;;;;;;5098606;28;20043;-81
2024/01/09 03:35:15;;;;;;;7.40;3.47;;;-3274.00;88.10;;;;;;5098499;28;20062;-83
2024/01/09 03:37:41;;;;;;;7.68;3.38;;;-3274.00;88.00;;;;;;5115393;28;20046;-82
2024/01/09 03:40:07;;;;;;;9.55;3.88;;;-3274.00;87.90;;;;;;5115151;28;20463;-81
2024/01/09 03:42:32;;;;;;;5.22;3.15;;;-3274.00;88.10;;;;;;5081803;28;20122;-85
2024/01/09 03:44:58;;;;;;;6.45;3.03;;;-3274.00;88.10;;;;;;5098747;28;20134;-81
2024/01/09 03:47:24;;;;;;;8.65;2.88;;;-3274.00;88.20;;;;;;5081662;28;20061;-82
2024/01/09 03:49:49;;;;;;;5.20;3.10;;;-3274.00;88.30;;;;;;5087814;27;20046;-82
2024/01/09 03:52:15;;;;;;;4.53;2.97;;;-3274.00;88.00;;;;;;5106738;27;20129;-82
2024/01/09 03:54:41;;;;;;;6.55;3.30;;;-3273.90;88.20;;;;;;5086736;27;20087;-82
2024/01/09 03:57:07;;;;;;;4.57;2.95;;;-3273.90;88.20;;;;;;5085133;27;20068;-84
2024/01/09 03:59:33;;;;;;;6.88;3.13;;;-3273.90;88.30;;;;;;5084753;27;20035;-84
2024/01/09 04:01:59;;;;;;;6.80;3.22;;;-3273.90;88.20;;;;;;5101393;27;20372;-82
2024/01/09 04:04:25;;;;;;;4.90;2.78;;;-3273.80;88.00;;;;;;5135544;27;20039;-81
2024/01/09 04:06:50;;;;;;;4.65;2.58;;;-3273.80;87.90;;;;;;5135861;27;20038;-82
2024/01/09 04:09:16;;;;;;;4.72;3.00;;;-3273.80;88.20;;;;;;5101713;27;20530;-82
2024/01/09 04:11:45;;;;;;;5.05;2.85;;;-3273.90;88.30;;;;;;5083363;27;20399;-81
2024/01/09 04:14:11;;;;;;;5.40;3.13;;;-3273.80;88.10;;;;;;5135597;27;20408;-81
2024/01/09 04:16:37;;;;;;;5.28;3.22;;;-3273.80;88.30;;;;;;5118156;27;20494;-82
2024/01/09 04:19:03;;;;;;;6.55;3.35;;;-3273.80;88.20;;;;;;5084420;27;20111;-82
2024/01/09 04:21:29;;;;;;;7.65;3.92;;;-3273.80;88.30;;;;;;5118336;27;20035;-82
2024/01/09 04:23:54;;;;;;;6.95;3.72;;;-3273.80;88.30;;;;;;5118198;27;20506;-81
2024/01/09 04:26:20;;;;;;;6.32;3.10;;;-3273.80;88.20;;;;;;5118066;27;20039;-81
2024/01/09 04:28:46;;;;;;;6.07;3.10;;;-3273.80;88.30;;;;;;5084401;27;20395;-82
2024/01/09 04:31:11;;;;;;;6.93;3.35;;;-3273.80;88.30;;;;;;5116734;27;20039;-82
2024/01/09 04:33:37;;;;;;;5.50;3.03;;;-3273.80;88.20;;;;;;5100975;27;20035;-81
2024/01/09 04:36:03;;;;;;;5.28;3.05;;;-3273.70;88.30;;;;;;5117896;27;20039;-82
2024/01/09 04:38:29;;;;;;;3.90;2.25;;;-3273.70;88.20;;;;;;5117668;27;20039;-82
2024/01/09 04:40:54;;;;;;;5.43;2.88;;;-3273.70;88.10;;;;;;5100542;27;20108;-82
2024/01/09 04:43:20;;;;;;;7.30;2.78;;;-3273.70;88.10;;;;;;5083809;27;20043;-83
2024/01/09 04:45:46;;;;;;;6.50;3.15;;;-3273.70;87.90;;;;;;5099525;27;20429;-82
2024/01/09 04:48:11;;;;;;;8.23;3.08;;;-3273.70;87.90;;;;;;5100654;27;20050;-82
2024/01/09 04:50:37;;;;;;;5.40;2.95;;;-3273.80;88.20;;;;;;5100536;27;20042;-82
2024/01/09 04:53:03;;;;;;;5.68;2.80;;;-3273.80;88.00;;;;;;5100567;27;20407;-81
2024/01/09 04:55:28;;;;;;;5.50;2.42;;;-3273.70;87.80;;;;;;5112753;28;20035;-82
2024/01/09 04:57:54;;;;;;;4.97;2.60;;;-3273.70;87.60;;;;;;5116717;27;20115;-82
2024/01/09 05:00:21;;;;;;;4.80;2.72;;;-3273.60;87.50;;;;;;5134247;27;20035;-83
2024/01/09 05:02:48;;;;;;;5.80;3.20;;;-3273.60;87.20;;;;;;5084206;27;20391;-82
2024/01/09 05:05:14;;;;;;;5.82;2.70;;;-3273.60;87.30;;;;;;5084081;27;20039;-82
2024/01/09 05:07:40;;;;;;;5.45;3.13;;;-3273.60;87.20;;;;;;5099899;27;20543;-81
2024/01/09 05:10:06;;;;;;;4.95;2.55;;;-3273.60;87.10;;;;;;5100215;27;20077;-83
2024/01/09 05:12:31;;;;;;;5.55;2.85;;;-3273.60;87.00;;;;;;5082230;27;20490;-81
2024/01/09 05:14:57;;;;;;;7.00;2.92;;;-3273.60;87.20;;;;;;5117425;27;20050;-82
2024/01/09 05:17:23;;;;;;;6.30;2.97;;;-3273.60;87.40;;;;;;5116984;27;20453;-81
2024/01/09 05:19:48;;;;;;;5.70;2.70;;;-3273.70;87.30;;;;;;5116686;27;20031;-83
2024/01/09 05:22:14;;;;;;;6.57;3.08;;;-3273.60;87.30;;;;;;5134007;27;20119;-81
2024/01/09 05:24:40;;;;;;;7.63;3.05;;;-3273.60;87.30;;;;;;5099845;27;20046;-81
2024/01/09 05:27:05;;;;;;;5.32;3.10;;;-3273.60;87.30;;;;;;5116841;27;20311;-82
2024/01/09 05:29:31;;;;;;;5.55;3.28;;;-3273.60;87.50;;;;;;5098766;27;20031;-82
2024/01/09 05:31:57;;;;;;;6.57;3.05;;;-3273.70;87.60;;;;;;5099509;27;20036;-83
2024/01/09 05:34:22;;;;;;;4.85;2.70;;;-3273.60;87.60;;;;;;5099248;27;20062;-82
2024/01/09 05:36:48;;;;;;;5.75;2.85;;;-3273.60;87.40;;;;;;5096309;27;20040;-81
2024/01/09 05:39:14;;;;;;;6.85;3.22;;;-3273.60;87.40;;;;;;5115966;27;20084;-82
2024/01/09 05:41:40;;;;;;;5.03;3.05;;;-3273.60;87.20;;;;;;5098832;27;20047;-83
2024/01/09 05:44:06;;;;;;;4.90;2.85;;;-3273.70;87.80;;;;;;5082744;27;20035;-83
2024/01/09 05:46:31;;;;;;;6.40;3.10;;;-3273.80;88.00;;;;;;5116426;27;20031;-81
2024/01/09 05:48:57;;;;;;;7.38;3.08;;;-3273.80;87.70;;;;;;5082537;27;20172;-82
2024/01/09 05:51:23;;;;;;;6.32;3.38;;;-3273.80;87.80;;;;;;5116358;27;20035;-83
2024/01/09 05:53:48;;;;;;;6.30;3.03;;;-3273.80;87.60;;;;;;5133452;27;20407;-82
2024/01/09 05:56:14;;;;;;;8.25;3.30;;;-3273.80;87.90;;;;;;5116571;27;20050;-84
2024/01/09 05:58:40;;;;;;;5.47;3.10;;;-3273.70;87.60;;;;;;5116141;27;20491;-82
2024/01/09 06:01:06;;;;;;;4.60;3.35;;;-3273.70;87.70;;;;;;5099526;27;20493;-83
2024/01/09 06:03:31;;;;;;;5.38;3.47;;;-3273.70;87.60;;;;;;5099249;27;20031;-83
2024/01/09 06:05:57;;;;;;;4.88;2.97;;;-3273.70;87.60;;;;;;5116222;27;20039;-82
2024/01/09 06:08:24;;;;;;;6.72;3.50;;;-3273.70;87.70;;;;;;5115946;27;20467;-82
2024/01/09 06:10:49;;;;;;;4.82;3.50;;;-3273.60;87.30;;;;;;5099212;27;20042;-82
2024/01/09 06:13:15;;;;;;;5.50;3.40;;;-3273.60;87.60;;;;;;5115516;27;20045;-82
2024/01/09 06:15:41;;;;;;;7.00;3.58;;;-3273.60;87.70;;;;;;5099341;27;20035;-83
2024/01/09 06:18:07;;;;;;;6.30;3.47;;;-3273.60;87.60;;;;;;5133120;27;20039;-81
2024/01/09 06:20:33;;;;;;;6.85;3.17;;;-3273.60;87.40;;;;;;5133324;27;20038;-81
2024/01/09 06:22:58;;;;;;;6.68;3.40;;;-3273.50;87.50;;;;;;5133005;27;20447;-81
2024/01/09 06:25:24;;;;;;;8.57;4.32;;;-3273.50;87.60;;;;;;5099368;27;20066;-81
2024/01/09 06:27:50;;;;;;;6.57;3.28;;;-3273.50;87.40;;;;;;5082319;27;20039;-82
2024/01/09 06:30:16;;;;;;;5.32;3.42;;;-3273.50;87.60;;;;;;5098961;27;20043;-80
2024/01/09 06:32:42;;;;;;;5.70;3.53;;;-3273.40;87.60;;;;;;5099492;27;20081;-81
2024/01/09 06:35:08;;;;;;;6.25;3.53;;;-3273.40;87.40;;;;;;5115380;27;20043;-81
2024/01/09 06:37:34;;;;;;;6.40;3.35;;;-3273.30;87.40;;;;;;5132968;27;20039;-82
2024/01/09 06:39:59;;;;;;;5.55;3.50;;;-3273.40;87.60;;;;;;5098650;27;20577;-82
2024/01/09 06:42:25;;;;;;;6.90;4.28;;;-3273.40;87.50;;;;;;5099154;28;20039;-83
2024/01/09 06:44:51;;;;;;;7.93;3.80;;;-3273.30;86.90;;;;;;5115016;28;20550;-82
2024/01/09 06:47:17;;;;;;;7.10;3.60;;;-3273.30;86.90;;;;;;5115080;28;20031;-82
2024/01/09 06:49:42;;;;;;;8.05;4.03;;;-3273.30;87.10;;;;;;5131676;28;20395;-81
2024/01/09 06:52:08;;;;;;;5.80;3.60;;;-3273.30;87.30;;;;;;5132360;28;20043;-82
2024/01/09 06:54:34;;;;;;;5.97;3.78;;;-3273.30;87.20;;;;;;5132664;28;20116;-81
2024/01/09 06:56:59;;;;;;;7.63;3.80;;;-3273.30;86.60;;;;;;5114882;28;20031;-83
2024/01/09 06:59:25;;;;;;;10.00;3.78;;;-3273.30;86.90;;;;;;5132520;28;20035;-80
2024/01/09 07:01:51;;;;;;;6.13;3.22;;;-3273.30;86.30;;;;;;5095645;28;20114;-81
2024/01/09 07:04:16;;;;;;;5.78;3.80;;;-3273.20;86.00;;;;;;5121666;28;20035;-81
2024/01/09 07:06:45;;;;;;;6.50;3.53;;;-3273.20;86.00;;;;;;5115848;28;20058;-82
2024/01/09 07:09:11;;;;;;;5.78;3.15;;;-3273.10;86.00;;;;;;5132737;28;20070;-81
2024/01/09 07:11:36;;;;;;;7.22;4.25;;;-3273.20;86.30;;;;;;5115962;28;20054;-81
2024/01/09 07:14:02;;;;;;;7.25;3.85;;;-3273.10;85.50;;;;;;5099032;28;20035;-83
2024/01/09 07:16:29;;;;;;;5.47;3.47;;;-3273.10;85.40;;;;;;5098789;28;20039;-82
2024/01/09 07:18:55;;;;;;;5.30;2.92;;;-3273.10;85.60;;;;;;5115561;28;20096;-82
2024/01/09 07:21:20;;;;;;;5.70;3.15;;;-3273.00;85.10;;;;;;5098564;28;20035;-83
2024/01/09 07:23:47;;;;;;;6.03;3.45;;;-3273.10;85.30;;;;;;5100798;27;20118;-82
2024/01/09 07:26:13;;;;;;;5.40;3.08;;;-3273.00;84.80;;;;;;5102550;27;20035;-82
2024/01/09 07:28:41;;;;;;;5.13;3.22;;;-3273.10;85.40;;;;;;5136557;27;20046;-82
2024/01/09 07:31:07;;;;;;;6.20;3.80;;;-3273.00;84.90;;;;;;5102837;27;20552;-81
2024/01/09 07:33:33;;;;;;;5.55;3.45;;;-3273.00;85.30;;;;;;5102629;27;20046;-82
2024/01/09 07:35:59;;;;;;;6.80;3.45;;;-3273.00;84.80;;;;;;5085446;27;20121;-81
2024/01/09 07:38:24;;;;;;;6.03;3.17;;;-3273.00;85.00;;;;;;5102200;27;20035;-81
2024/01/09 07:40:50;;;;;;;5.15;3.15;;;-3273.00;84.80;;;;;;5085297;27;20055;-81
2024/01/09 07:43:16;;;;;;;6.78;2.90;;;-3273.00;84.90;;;;;;5085158;27;20429;-81
2024/01/09 07:45:42;;;;;;;5.72;3.22;;;-3273.00;84.70;;;;;;5118915;27;20035;-81
2024/01/09 07:48:08;;;;;;;5.93;3.65;;;-3273.00;84.80;;;;;;5119156;27;20046;-81
2024/01/09 07:50:33;;;;;;;5.28;3.20;;;-3273.00;84.20;;;;;;5136275;27;20043;-82
2024/01/09 07:52:59;;;;;;;6.75;3.15;;;-3273.00;84.70;;;;;;5102248;27;20225;-81
2024/01/09 07:55:25;;;;;;;5.00;3.08;;;-3273.00;84.70;;;;;;5102061;27;20058;-81
2024/01/09 07:57:51;;;;;;;5.70;3.05;;;-3273.00;84.60;;;;;;5118828;27;20093;-81
2024/01/09 08:00:17;;;;;;;5.68;3.13;;;-3273.00;84.70;;;;;;5136240;27;20093;-81
2024/01/09 08:02:42;;;;;;;8.52;3.90;;;-3273.00;84.00;;;;;;5101950;27;20035;-81
2024/01/09 08:05:08;;;;;;;6.75;3.60;;;-3273.00;84.20;;;;;;5102027;27;20126;-82
2024/01/09 08:07:34;;;;;;;5.72;3.55;;;-3273.00;84.00;;;;;;5102036;27;20065;-81
2024/01/09 08:10:00;;;;;;;6.20;3.42;;;-3272.90;83.60;;;;;;5119061;27;20557;-82
2024/01/09 08:12:25;;;;;;;5.50;3.33;;;-3272.90;83.30;;;;;;5136199;27;20395;-81
2024/01/09 08:14:51;;;;;;;5.30;2.95;;;-3272.90;83.50;;;;;;5084865;27;20487;-81
2024/01/09 08:17:17;;;;;;;5.55;2.95;;;-3272.90;83.70;;;;;;5084915;27;20122;-82
2024/01/09 08:19:43;;;;;;;5.72;3.25;;;-3273.00;83.50;;;;;;5118890;27;20038;-81
2024/01/09 08:22:09;;;;;;;7.65;3.45;;;-3272.90;83.40;;;;;;5101694;27;20168;-81
2024/01/09 08:24:34;;;;;;;5.15;3.17;;;-3272.90;83.20;;;;;;5118823;27;20072;-81
2024/01/09 08:27:00;;;;;;;5.07;3.20;;;-3272.90;82.70;;;;;;5101778;27;20468;-81
2024/01/09 08:29:27;;;;;;;7.25;3.15;;;-3272.90;82.90;;;;;;5101595;27;20035;-82
2024/01/09 08:31:53;;;;;;;7.38;3.67;;;-3273.00;82.90;;;;;;5101582;27;20042;-81
2024/01/09 08:34:19;;;;;;;5.60;3.60;;;-3273.00;82.60;;;;;;5118021;27;20042;-81
2024/01/09 08:36:48;;;;;;;7.13;3.00;;;-3273.00;82.50;;;;;;5101183;27;20035;-81
2024/01/09 08:39:14;;;;;;;4.75;2.88;;;-3273.00;82.70;;;;;;5118347;27;20464;-82
2024/01/09 08:41:41;;;;;;;7.63;3.15;;;-3273.00;82.40;;;;;;5135612;27;20047;-82
2024/01/09 08:44:07;;;;;;;5.82;4.25;;;-3273.00;82.50;;;;;;5118442;27;20042;-83
2024/01/09 08:46:33;;;;;;;4.13;2.72;;;-3273.00;82.20;;;;;;5118367;27;20035;-81
2024/01/09 08:48:59;;;;;;;5.63;3.17;;;-3273.00;82.20;;;;;;5135349;27;20043;-84
2024/01/09 08:51:25;;;;;;;4.97;2.90;;;-3273.10;82.50;;;;;;5135057;27;20098;-83
2024/01/09 08:53:54;;;;;;;5.55;3.20;;;-3273.10;82.70;;;;;;5101083;27;20047;-81
2024/01/09 08:56:19;;;;;;;8.05;3.38;;;-3273.10;82.60;;;;;;5135157;27;20174;-81
2024/01/09 08:58:45;;;;;;;6.05;3.08;;;-3273.20;82.70;;;;;;5135027;27;20102;-81
2024/01/09 09:01:11;;;;;;;8.50;3.58;;;-3273.20;83.10;;;;;;5108446;27;20440;-81
2024/01/09 09:03:37;;;;;;;7.25;3.97;;;-3273.30;83.20;;;;;;5141216;27;20433;-80
2024/01/09 09:06:03;;;;;;;5.85;3.15;;;-3273.30;83.30;;;;;;5141340;27;20039;-80
2024/01/09 09:08:29;;;;;;;5.15;3.40;;;-3273.30;83.00;;;;;;5134558;27;20038;-81
2024/01/09 09:10:54;;;;;;;7.95;3.75;;;-3273.40;83.20;;;;;;5100301;27;20031;-81
2024/01/09 09:13:20;;;;;;;7.07;3.83;;;-3273.40;82.80;;;;;;5083319;27;20058;-81
2024/01/09 09:15:46;;;;;;;6.13;2.88;;;-3273.40;82.30;;;;;;5117086;27;20074;-80
2024/01/09 09:18:11;;;;;;;5.75;2.90;;;-3273.60;82.60;;;;;;5099966;27;20035;-81
2024/01/09 09:20:37;;;;;;;6.10;3.63;;;-3273.60;82.50;;;;;;5096678;28;20035;-81
2024/01/09 09:23:05;;;;;;;4.30;2.88;;;-3273.60;82.70;;;;;;5076881;27;20027;-80
2024/01/09 09:25:31;;;;;;;4.15;2.75;;;-3273.60;82.20;;;;;;5133593;27;20393;-81
2024/01/09 09:27:58;;;;;;;4.93;2.53;;;-3273.60;81.80;;;;;;5115898;27;20039;-83
2024/01/09 09:30:25;;;;;;;5.30;3.15;;;-3273.70;82.60;;;;;;5100019;27;20039;-79
2024/01/09 09:32:51;;;;;;;4.97;2.80;;;-3273.80;82.90;;;;;;5100038;27;20054;-80
2024/01/09 09:35:17;;;;;;;6.13;3.28;;;-3273.80;81.90;;;;;;5099864;27;20046;-81
2024/01/09 09:37:46;;;;;;;10.90;3.60;;;-3273.80;81.10;;;;;;5133047;27;20035;-81
2024/01/09 09:40:12;;;;;;;6.55;3.13;;;-3273.80;81.10;;;;;;5115392;27;20621;-82
2024/01/09 09:42:39;;;;;;;6.45;3.20;;;-3273.90;81.20;;;;;;5115874;27;20125;-82
2024/01/09 09:45:11;;;;;;;6.95;3.65;;;-3274.00;82.40;;;;;;5133684;27;20386;-82
2024/01/09 09:47:38;;;;;;;7.10;3.22;;;-3274.00;82.30;;;;;;5132747;27;20039;-83
2024/01/09 09:50:05;;;;;;;6.78;2.92;;;-3274.10;82.20;;;;;;5133613;27;20546;-81
2024/01/09 09:52:34;;;;;;;5.35;3.17;;;-3274.20;82.20;;;;;;5099480;27;20053;-82
2024/01/09 09:55:00;;;;;;;4.85;2.97;;;-3274.30;81.90;;;;;;5116303;27;20051;-82
2024/01/09 09:57:26;;;;;;;6.63;2.92;;;-3274.30;82.50;;;;;;5116515;27;20170;-82
2024/01/09 09:59:52;;;;;;;4.97;2.83;;;-3274.40;82.60;;;;;;5099645;27;20031;-82
2024/01/09 10:02:26;;;;;;;5.30;3.15;;;-3274.40;80.90;;;;;;5099131;27;20543;-83
2024/01/09 10:04:53;;;;;;;9.38;4.05;;;-3274.50;80.70;;;;;;5133579;27;20047;-83
2024/01/09 10:07:20;;;;;;;7.13;3.58;;;-3274.60;80.90;;;;;;5099308;27;20039;-83
2024/01/09 10:09:51;;;;;;;5.10;3.53;;;-3274.70;81.90;;;;;;5116392;27;20390;-83
2024/01/09 10:12:24;;;;;;;4.93;2.97;;;-3274.80;82.10;;;;;;5133217;27;20046;-83
2024/01/09 10:15:07;;;;;;;6.07;3.38;;;-3274.90;81.70;;;;;;5115906;27;20031;-85
2024/01/09 10:17:34;;;;;;;6.65;3.50;;;-3274.90;80.60;;;;;;5116019;27;20035;-82
2024/01/09 10:20:02;;;;;;;5.05;3.00;;;-3275.00;80.30;;;;;;5099028;27;20039;-83
2024/01/09 10:22:31;;;;;;;4.70;2.85;;;-3275.00;81.00;;;;;;5116580;27;20040;-83
2024/01/09 10:24:57;;;;;;;4.85;2.67;;;-3275.10;79.90;;;;;;5083121;27;20031;-83
2024/01/09 10:27:22;;;;;;;5.72;2.85;;;-3275.20;81.00;;;;;;5098814;27;20390;-83
2024/01/09 10:29:48;;;;;;;5.55;3.15;;;-3275.20;81.20;;;;;;5082084;27;20035;-83
2024/01/09 10:32:14;;;;;;;6.47;3.80;;;-3275.30;80.40;;;;;;5082199;27;20083;-84
2024/01/09 10:34:40;;;;;;;4.93;2.92;;;-3275.40;80.00;;;;;;5132793;27;20085;-82
2024/01/09 10:37:09;;;;;;;5.82;2.95;;;-3275.50;80.80;;;;;;5115816;28;20069;-82
2024/01/09 10:39:35;;;;;;;5.45;2.88;;;-3275.50;79.60;;;;;;5115704;27;20051;-83
2024/01/09 10:42:05;;;;;;;5.18;3.08;;;-3275.50;77.10;;;;;;5098859;28;20035;-82
2024/01/09 10:44:31;;;;;;;4.68;2.78;;;-3275.70;79.80;;;;;;5132780;27;20506;-82
2024/01/09 10:46:59;;;;;;;4.68;2.45;;;-3275.80;79.10;;;;;;5116038;28;20391;-80
2024/01/09 10:49:25;;;;;;;5.20;2.90;;;-3275.80;79.80;;;;;;5115894;28;20144;-80
2024/01/09 10:51:53;;;;;;;4.57;2.88;;;-3275.90;79.30;;;;;;5098482;28;20047;-79
2024/01/09 10:54:20;;;;;;;6.72;3.50;;;-3276.00;77.90;;;;;;5082270;28;20437;-79
2024/01/09 10:56:49;;;;;;;5.05;2.70;;;-3276.00;77.00;;;;;;5132674;28;20039;-79
2024/01/09 10:59:16;;;;;;;5.75;3.17;;;-3276.10;78.30;;;;;;5118848;27;20042;-79
2024/01/09 11:01:41;;;;;;;6.88;2.92;;;-3276.20;74.70;;;;;;5120267;27;20070;-78
2024/01/09 11:04:08;;;;;;;4.85;2.60;;;-3276.30;76.20;;;;;;5120781;27;20050;-79
2024/01/09 11:06:36;;;;;;;4.55;3.10;;;-3276.40;78.00;;;;;;5120299;27;20035;-77
2024/01/09 11:09:04;;;;;;;7.70;2.58;;;-3276.50;77.60;;;;;;5136726;27;20031;-77
2024/01/09 11:11:36;;;;;;;3.67;2.38;;;-3276.50;76.10;;;;;;5136344;27;20046;-79
2024/01/09 11:14:08;;;;;;;6.07;2.55;;;-3276.70;78.00;;;;;;5118071;27;20049;-79
2024/01/09 11:16:37;;;;;;;3.80;2.25;;;-3276.70;75.80;;;;;;5117682;27;20042;-77
2024/01/09 11:19:06;;;;;;;3.60;2.42;;;0.00;75.00;;;;;;5117425;27;20061;-78
2024/01/09 11:21:32;;;;;;;4.05;2.40;;;0.00;76.00;;;;;;5134713;27;20446;-79
2024/01/09 11:24:00;;;;;;;3.83;2.50;;;0.10;73.50;;;;;;5134345;27;20088;-77
2024/01/09 11:26:34;;;;;;;6.82;2.72;;;0.20;74.80;;;;;;5101085;27;20054;-79
2024/01/09 11:29:00;;;;;;;4.22;3.03;;;0.20;74.60;;;;;;5119040;27;20051;-79
2024/01/09 11:31:29;;;;;;;4.75;2.33;;;0.30;75.10;;;;;;5135739;27;20084;-82
2024/01/09 11:33:57;;;;;;;3.53;2.17;;;0.40;74.60;;;;;;5118638;27;20095;-79
2024/01/09 11:36:33;;;;;;;6.18;2.63;;;0.50;73.70;;;;;;5119734;27;20047;-80
2024/01/09 11:38:59;;;;;;;4.00;2.42;;;0.50;74.00;;;;;;5136467;27;20039;-81
2024/01/09 11:41:34;;;;;;;3.30;2.28;;;0.50;67.50;;;;;;5119527;27;20507;-79
2024/01/09 11:44:07;;;;;;;4.82;2.33;;;0.60;69.90;;;;;;5103064;27;20039;-81
2024/01/09 11:46:37;;;;;;;2.92;1.73;;;0.80;70.60;;;;;;5136590;27;20031;-80
2024/01/09 11:49:04;;;;;;;4.40;2.17;;;1.00;72.10;;;;;;5136863;27;20077;-80
2024/01/09 11:51:31;;;;;;;4.70;2.25;;;1.10;68.60;;;;;;5119054;27;20062;-79
2024/01/09 11:54:00;;;;;;;4.18;2.67;;;1.30;72.30;;;;;;5119355;27;20054;-81
2024/01/09 11:56:27;;;;;;;3.78;2.38;;;1.40;71.20;;;;;;5119800;27;20043;-81
2024/01/09 11:58:53;;;;;;;4.03;2.50;;;1.50;70.50;;;;;;5118935;27;20043;-80
2024/01/09 12:01:23;;;;;;;4.35;2.83;;;1.70;68.60;;;;;;5118977;27;20070;-81
2024/01/09 12:03:53;;;;;;;5.78;2.95;;;1.80;70.10;;;;;;5102044;27;20039;-80
2024/01/09 12:06:23;;;;;;;4.53;2.47;;;1.90;69.20;;;;;;5119862;27;20061;-81
2024/01/09 12:08:50;;;;;;;3.97;2.80;;;2.10;66.90;;;;;;5119103;27;20122;-81
2024/01/09 12:11:16;;;;;;;4.45;2.70;;;2.20;69.60;;;;;;5117761;27;20129;-81
2024/01/09 12:13:42;;;;;;;6.70;3.03;;;2.30;66.80;;;;;;5119098;27;20130;-81
2024/01/09 12:16:19;;;;;;;3.42;2.30;;;2.50;67.50;;;;;;5136113;27;20091;-81